Time;durP1;ratioP1;P1;durP2;ratioP2;P2;SDS_P1;SDS_P2;PMS_P1;PMS_P2;Temp;Humidity;BMP_temperature;BMP_pressure;BME280_temperature;BME280_humidity;BME280_pressure;Samples;Min_cycle;Max_cycle;Signal;HPM_P1;HPM_P2
2023/05/08 00:00:44;;;;;;;6.35;4.70;;;;;;;3.64;100.00;101553.69;5054191;28;20052;-76
2023/05/08 00:03:10;;;;;;;11.50;6.05;;;;;;;3.62;100.00;101544.84;5055758;28;20103;-77
2023/05/08 00:05:37;;;;;;;8.85;5.38;;;;;;;3.54;100.00;101538.41;5055389;28;20052;-77
2023/05/08 00:08:04;;;;;;;9.25;6.10;;;;;;;3.52;100.00;101545.72;5054485;28;20037;-76
2023/05/08 00:10:30;;;;;;;9.20;6.30;;;;;;;3.52;100.00;101552.16;5061854;28;20071;-78
2023/05/08 00:12:56;;;;;;;10.13;5.80;;;;;;;3.51;100.00;101559.03;5058945;28;20079;-78
2023/05/08 00:15:22;;;;;;;10.80;6.53;;;;;;;3.53;100.00;101561.41;5055799;28;20017;-76
2023/05/08 00:17:49;;;;;;;9.75;6.22;;;;;;;3.54;100.00;101555.38;5054472;28;20489;-76
2023/05/08 00:20:15;;;;;;;11.65;6.85;;;;;;;3.52;100.00;101563.47;5037460;28;20032;-78
2023/05/08 00:22:42;;;;;;;10.55;6.65;;;;;;;3.49;100.00;101561.44;5055219;28;20439;-76
2023/05/08 00:25:07;;;;;;;10.80;6.38;;;;;;;3.41;100.00;101544.97;5054035;28;20029;-76
2023/05/08 00:27:34;;;;;;;11.52;7.47;;;;;;;3.45;100.00;101557.84;5054889;28;20040;-77
2023/05/08 00:30:01;;;;;;;13.15;7.35;;;;;;;3.42;100.00;101558.69;5055372;28;20059;-78
2023/05/08 00:32:26;;;;;;;11.02;6.82;;;;;;;3.41;100.00;101562.72;5055228;28;20021;-75
2023/05/08 00:34:55;;;;;;;10.05;6.57;;;;;;;3.37;100.00;101559.13;5055062;28;20078;-80
2023/05/08 00:37:21;;;;;;;11.52;6.68;;;;;;;3.34;100.00;101556.28;5053836;28;20037;-77
2023/05/08 00:39:49;;;;;;;9.25;6.28;;;;;;;3.34;100.00;101559.13;5053634;28;20025;-79
2023/05/08 00:42:14;;;;;;;9.50;6.15;;;;;;;3.28;100.00;101552.31;5053445;28;20025;-76
2023/05/08 00:44:41;;;;;;;9.73;6.25;;;;;;;3.23;100.00;101562.81;5054021;28;20188;-77
2023/05/08 00:47:09;;;;;;;10.90;7.07;;;;;;;3.18;100.00;101554.00;5036211;28;20443;-78
2023/05/08 00:49:35;;;;;;;12.15;7.47;;;;;;;3.16;100.00;101554.38;5055296;28;20103;-76
2023/05/08 00:52:02;;;;;;;15.63;7.10;;;;;;;3.14;100.00;101564.47;5052472;28;20519;-79
2023/05/08 00:54:28;;;;;;;14.40;7.55;;;;;;;3.11;100.00;101559.66;5052321;28;20021;-77
2023/05/08 00:56:54;;;;;;;12.98;7.57;;;;;;;3.07;100.00;101562.50;5018870;28;20067;-75
2023/05/08 00:59:20;;;;;;;12.77;8.05;;;;;;;2.99;100.00;101551.63;5051506;28;20049;-78
2023/05/08 01:01:46;;;;;;;13.85;8.23;;;;;;;3.04;100.00;101565.31;5052696;28;20075;-80
2023/05/08 01:04:13;;;;;;;13.48;7.65;;;;;;;3.00;100.00;101565.34;5053497;28;20028;-79
2023/05/08 01:06:39;;;;;;;12.40;8.25;;;;;;;2.99;100.00;101563.72;5054003;28;20458;-77
2023/05/08 01:09:06;;;;;;;14.93;8.75;;;;;;;3.00;100.00;101570.19;5053097;28;20402;-78
2023/05/08 01:12:13;;;;;;;14.65;8.13;;;;;;;2.99;100.00;101568.56;5053841;28;20523;-78
2023/05/08 01:15:05;;;;;;;15.25;8.55;;;;;;;2.88;100.00;101559.38;5052406;28;20118;-77
2023/05/08 01:17:55;;;;;;;16.58;9.05;;;;;;;2.88;100.00;101574.28;5053453;28;20068;-78
2023/05/08 01:20:42;;;;;;;13.15;7.70;;;;;;;2.84;100.00;101575.47;5052821;28;20535;-76
2023/05/08 01:23:36;;;;;;;16.38;9.40;;;;;;;2.79;100.00;101582.34;5052900;28;20060;-77
2023/05/08 01:26:22;;;;;;;13.63;8.38;;;;;;;2.75;100.00;101578.75;5053524;28;20111;-76
2023/05/08 01:29:15;;;;;;;14.95;9.25;;;;;;;2.70;100.00;101579.16;5054202;28;20064;-78
2023/05/08 01:32:05;;;;;;;14.90;8.90;;;;;;;2.62;100.00;101575.56;5054250;28;20031;-77
2023/05/08 01:35:09;;;;;;;15.55;8.55;;;;;;;2.60;100.00;101575.16;5054388;28;20112;-76
2023/05/08 01:38:02;;;;;;;14.98;8.18;;;;;;;2.54;100.00;101576.00;5052583;28;20036;-76
2023/05/08 01:40:56;;;;;;;15.93;8.52;;;;;;;2.51;100.00;101585.25;5051990;28;20382;-78
2023/05/08 01:43:52;;;;;;;14.52;8.38;;;;;;;2.44;100.00;101580.44;5053621;28;20047;-76
2023/05/08 01:46:25;;;;;;;15.70;8.57;;;;;;;2.40;100.00;101585.28;5019819;28;20033;-78
2023/05/08 01:49:10;;;;;;;14.60;9.05;;;;;;;2.37;100.00;101579.66;5052378;28;20378;-79
2023/05/08 01:51:45;;;;;;;18.13;8.63;;;;;;;2.32;100.00;101580.88;5021230;28;20528;-77
2023/05/08 01:54:14;;;;;;;12.73;9.00;;;;;;;2.31;100.00;101582.88;5052515;28;20079;-77
2023/05/08 01:56:43;;;;;;;15.75;9.00;;;;;;;2.28;100.00;101572.41;5036147;28;20040;-78
2023/05/08 01:59:16;;;;;;;13.07;8.43;;;;;;;2.26;100.00;101582.47;5035535;28;20025;-80
2023/05/08 02:01:43;;;;;;;13.85;8.65;;;;;;;2.23;100.00;101581.28;5052981;28;20021;-76
2023/05/08 02:04:10;;;;;;;15.80;9.18;;;;;;;2.20;100.00;101581.28;5037506;28;20166;-77
2023/05/08 02:06:51;;;;;;;19.90;8.98;;;;;;;2.19;100.00;101597.38;5054318;28;20454;-77
2023/05/08 02:09:18;;;;;;;15.10;9.13;;;;;;;2.16;100.00;101592.56;5053575;28;20109;-77
2023/05/08 02:11:53;;;;;;;15.35;9.55;;;;;;;2.17;100.00;101590.53;5052074;28;20074;-77
2023/05/08 02:14:19;;;;;;;16.05;10.32;;;;;;;2.13;100.00;101590.56;5051981;28;20051;-77
2023/05/08 02:16:54;;;;;;;16.45;10.27;;;;;;;2.08;100.00;101590.97;5052220;28;20108;-77
2023/05/08 02:19:22;;;;;;;17.90;10.38;;;;;;;2.03;100.00;101597.00;5051882;28;20439;-77
2023/05/08 02:21:49;;;;;;;20.85;11.60;;;;;;;2.01;100.00;101599.41;5052899;28;20343;-76
2023/05/08 02:24:16;;;;;;;17.00;10.68;;;;;;;1.97;100.00;101601.41;5051783;28;20027;-76
2023/05/08 02:26:57;;;;;;;16.42;9.05;;;;;;;1.93;100.00;101600.63;5035196;28;20086;-76
2023/05/08 02:29:24;;;;;;;21.65;10.43;;;;;;;1.88;100.00;101609.47;5035195;28;20067;-77
2023/05/08 02:31:53;;;;;;;13.50;9.35;;;;;;;1.87;100.00;101608.66;5051763;28;20020;-76
2023/05/08 02:34:20;;;;;;;21.85;9.20;;;;;;;1.85;100.00;101615.88;5035265;28;20552;-77
2023/05/08 02:36:48;;;;;;;17.83;10.00;;;;;;;1.83;100.00;101612.69;5052824;28;20029;-76
2023/05/08 02:39:14;;;;;;;15.50;10.55;;;;;;;1.82;100.00;101614.69;5035538;28;20033;-77
2023/05/08 02:41:46;;;;;;;14.10;9.13;;;;;;;1.81;100.00;101615.91;5035005;28;20028;-77
2023/05/08 02:44:12;;;;;;;;;;;;;;;1.76;100.00;101621.94;5052271;28;20029;-77
2023/05/08 02:46:43;;;;;;;15.45;8.93;;;;;;;1.71;100.00;101619.50;5051770;28;19909;-77
2023/05/08 02:49:32;;;;;;;18.08;9.95;;;;;;;1.68;100.00;101622.31;5052802;28;20048;-77
2023/05/08 02:52:41;;;;;;;15.65;9.65;;;;;;;1.66;100.00;101633.16;5052586;28;20025;-77
2023/05/08 02:55:24;;;;;;;15.80;9.77;;;;;;;1.62;100.00;101621.09;4979107;28;20030;-78
2023/05/08 02:58:17;;;;;;;16.33;9.65;;;;;;;1.60;100.00;101629.16;4979377;28;20490;-77
2023/05/08 03:01:06;;;;;;;17.95;10.18;;;;;;;1.58;100.00;101623.09;4978839;28;20062;-78
2023/05/08 03:03:38;;;;;;;16.02;10.15;;;;;;;1.58;100.00;101623.09;5027513;28;20045;-77
2023/05/08 03:06:17;;;;;;;15.23;9.32;;;;;;;1.60;100.00;101620.72;5055451;28;20036;-77
2023/05/08 03:08:44;;;;;;;13.30;9.50;;;;;;;1.59;100.00;101627.53;5038885;28;20136;-77
2023/05/08 03:11:36;;;;;;;15.40;9.07;;;;;;;1.59;100.00;101622.72;5055611;28;20474;-77
2023/05/08 03:14:11;;;;;;;18.85;10.10;;;;;;;1.59;100.00;101630.34;5040976;28;20390;-77
2023/05/08 03:16:54;;;;;;;19.20;10.80;;;;;;;1.57;100.00;101636.38;5061041;28;20029;-78
2023/05/08 03:19:30;;;;;;;18.90;10.75;;;;;;;1.55;100.00;101635.19;5060173;28;20124;-77
2023/05/08 03:21:57;;;;;;;29.73;13.70;;;;;;;1.54;100.00;101631.56;5041315;28;20104;-78
2023/05/08 03:24:27;;;;;;;40.35;16.77;;;;;;;1.57;100.00;101638.38;5059268;28;20163;-77
2023/05/08 03:26:55;;;;;;;32.65;13.73;;;;;;;1.55;100.00;101627.53;5041117;28;20474;-77
2023/05/08 03:29:20;;;;;;;28.00;12.57;;;;;;;1.59;100.00;101627.53;5054718;28;20025;-78
2023/05/08 03:31:51;;;;;;;29.25;12.20;;;;;;;1.57;100.00;101624.31;5054272;28;20096;-76
2023/05/08 03:34:18;;;;;;;24.77;12.70;;;;;;;1.61;100.00;101628.75;5037074;28;20192;-77
2023/05/08 03:36:44;;;;;;;21.77;11.05;;;;;;;1.64;100.00;101630.78;5054127;28;20029;-75
2023/05/08 03:39:25;;;;;;;19.08;10.77;;;;;;;1.65;100.00;101637.22;5054301;28;20027;-76
2023/05/08 03:41:54;;;;;;;15.80;10.57;;;;;;;1.65;100.00;101637.22;5054460;28;20021;-77
2023/05/08 03:44:23;;;;;;;17.45;11.13;;;;;;;1.68;100.00;101636.41;5054863;28;20037;-76
2023/05/08 03:46:52;;;;;;;19.10;10.27;;;;;;;1.71;100.00;101632.78;5054111;28;20033;-78
2023/05/08 03:49:17;;;;;;;17.45;10.43;;;;;;;1.71;100.00;101638.41;5054929;28;20401;-76
2023/05/08 03:51:43;;;;;;;18.17;10.85;;;;;;;1.75;100.00;101637.22;5053873;28;20041;-77
2023/05/08 03:54:09;;;;;;;18.85;10.55;;;;;;;1.78;100.00;101638.44;5043750;28;20071;-78
2023/05/08 03:56:39;;;;;;;19.27;10.90;;;;;;;1.82;100.00;101647.69;5059945;28;20390;-78
2023/05/08 03:59:08;;;;;;;16.92;9.30;;;;;;;1.87;100.00;101644.50;5054462;28;20073;-77
2023/05/08 04:01:43;;;;;;;17.30;10.38;;;;;;;1.91;100.00;101642.47;5055182;28;20060;-77
2023/05/08 04:04:29;;;;;;;17.65;9.95;;;;;;;1.99;100.00;101648.94;5054233;28;20053;-77
2023/05/08 04:07:32;;;;;;;16.02;10.60;;;;;;;2.04;100.00;101655.00;5054530;28;20383;-77
2023/05/08 04:10:03;;;;;;;18.08;8.98;;;;;;;2.09;100.00;101657.41;5055983;28;20025;-78
2023/05/08 04:12:53;;;;;;;20.75;11.68;;;;;;;2.15;100.00;101655.78;5055803;28;20066;-77
2023/05/08 04:15:25;;;;;;;15.85;9.38;;;;;;;2.18;100.00;101655.00;5055698;28;20382;-77
2023/05/08 04:18:14;;;;;;;17.80;10.80;;;;;;;2.27;100.00;101660.22;5054343;28;20470;-77
2023/05/08 04:20:41;;;;;;;17.42;11.02;;;;;;;2.31;100.00;101655.41;5054141;28;20382;-77
2023/05/08 04:23:08;;;;;;;23.00;9.75;;;;;;;2.41;100.00;101659.41;5037592;28;20466;-77
2023/05/08 04:25:36;;;;;;;14.32;10.38;;;;;;;2.48;100.00;101656.59;5054146;28;20504;-76
2023/05/08 04:28:03;;;;;;;19.50;8.98;;;;;;;2.54;100.00;101671.91;5054220;28;20020;-78
2023/05/08 04:30:28;;;;;;;17.90;9.77;;;;;;;2.53;100.00;101662.66;5054342;28;20021;-78
2023/05/08 04:32:56;;;;;;;15.45;10.10;;;;;;;2.62;100.00;101673.50;5037558;28;20079;-78
2023/05/08 04:35:24;;;;;;;16.23;9.73;;;;;;;2.73;100.00;101677.13;5038035;28;20037;-77
2023/05/08 04:37:51;;;;;;;14.55;9.05;;;;;;;2.83;100.00;101676.31;5055673;28;20108;-79
2023/05/08 04:40:19;;;;;;;12.48;8.73;;;;;;;2.91;100.00;101677.91;5054037;28;20074;-78
2023/05/08 04:42:46;;;;;;;14.93;9.07;;;;;;;2.95;100.00;101675.88;5055124;28;20021;-77
2023/05/08 04:45:13;;;;;;;11.68;8.20;;;;;;;3.05;100.00;101688.34;5054920;28;20051;-78
2023/05/08 04:47:39;;;;;;;13.77;7.93;;;;;;;3.17;100.00;101685.91;5054867;28;20035;-76
2023/05/08 04:50:06;;;;;;;13.45;8.40;;;;;;;3.22;100.00;101685.50;5053401;28;20431;-77
2023/05/08 04:52:31;;;;;;;14.60;8.63;;;;;;;3.32;100.00;101685.84;5055013;28;20021;-78
2023/05/08 04:54:58;;;;;;;11.82;8.43;;;;;;;3.37;100.00;101691.09;5053739;28;20028;-74
2023/05/08 04:57:23;;;;;;;13.20;7.95;;;;;;;3.55;100.00;101694.63;5054713;28;20119;-76
2023/05/08 04:59:50;;;;;;;10.98;8.05;;;;;;;3.64;100.00;101686.50;5054653;28;20382;-76
2023/05/08 05:02:15;;;;;;;14.40;8.80;;;;;;;3.76;100.00;101690.91;5052980;28;20079;-77
2023/05/08 05:04:41;;;;;;;11.63;7.72;;;;;;;3.87;100.00;101697.34;5054639;28;20016;-76
2023/05/08 05:07:08;;;;;;;13.45;9.07;;;;;;;3.97;100.00;101694.44;5053672;28;20561;-76
2023/05/08 05:09:48;;;;;;;12.35;8.55;;;;;;;4.08;100.00;101694.34;5054176;28;20097;-77
2023/05/08 05:12:15;;;;;;;16.20;8.60;;;;;;;4.18;100.00;101701.97;5054495;28;20029;-75
2023/05/08 05:15:00;;;;;;;11.32;8.05;;;;;;;4.30;100.00;101706.34;5053516;28;20486;-76
2023/05/08 05:17:26;;;;;;;12.60;9.00;;;;;;;4.33;100.00;101705.50;5054055;28;20048;-77
2023/05/08 05:19:53;;;;;;;12.20;8.38;;;;;;;4.33;100.00;101697.81;5052695;28;20493;-76
2023/05/08 05:22:19;;;;;;;11.25;7.53;;;;;;;4.44;100.00;101707.03;5053935;28;20021;-77
2023/05/08 05:24:47;;;;;;;12.43;7.65;;;;;;;4.47;100.00;101702.56;5052686;28;20033;-76
2023/05/08 05:27:12;;;;;;;12.10;7.93;;;;;;;4.55;100.00;101703.31;5053887;28;20543;-77
2023/05/08 05:29:38;;;;;;;14.20;8.18;;;;;;;4.66;100.00;101706.88;5053716;28;20119;-77
2023/05/08 05:32:06;;;;;;;10.68;8.13;;;;;;;4.66;100.00;101696.31;5054370;28;20028;-82
2023/05/08 05:34:32;;;;;;;10.98;8.07;;;;;;;4.77;100.00;101701.91;5052762;28;20384;-82
2023/05/08 05:36:59;;;;;;;11.25;8.57;;;;;;;4.79;100.00;101693.81;5052914;28;20115;-82
2023/05/08 05:39:26;;;;;;;12.10;7.78;;;;;;;4.80;100.00;101701.88;5052975;28;20044;-81
2023/05/08 05:41:53;;;;;;;12.27;8.30;;;;;;;4.92;100.00;101692.03;5054351;28;20033;-82
2023/05/08 05:44:18;;;;;;;11.25;7.82;;;;;;;5.06;100.00;101696.75;5053890;28;20025;-82
2023/05/08 05:46:44;;;;;;;14.95;9.00;;;;;;;5.17;100.00;101700.28;5053926;28;20021;-83
2023/05/08 05:49:19;;;;;;;10.60;7.93;;;;;;;5.21;100.00;101698.19;5051715;28;20052;-81
2023/05/08 05:51:45;;;;;;;14.40;8.85;;;;;;;5.21;100.00;101693.34;5051080;28;20027;-81
2023/05/08 05:54:16;;;;;;;13.60;8.40;;;;;;;5.40;100.00;101703.25;5052025;28;20037;-82
2023/05/08 05:57:00;;;;;;;12.15;8.35;;;;;;;5.42;100.00;101692.28;5052258;28;20470;-83
2023/05/08 05:59:25;;;;;;;14.38;9.10;;;;;;;5.45;100.00;101694.28;5052106;28;20417;-82
2023/05/08 06:01:51;;;;;;;10.88;7.57;;;;;;;5.64;100.00;101701.34;5052371;28;20027;-82
2023/05/08 06:04:19;;;;;;;14.70;8.30;;;;;;;5.79;100.00;101697.09;5052388;28;20017;-81
2023/05/08 06:06:46;;;;;;;15.10;8.18;;;;;;;6.03;100.00;101703.66;5052864;28;20091;-82
2023/05/08 06:09:12;;;;;;;13.77;7.70;;;;;;;6.17;100.00;101692.09;5051904;28;20109;-76
2023/05/08 06:11:39;;;;;;;10.75;6.85;;;;;;;6.34;100.00;101710.91;5053294;28;20027;-76
2023/05/08 06:14:05;;;;;;;12.23;6.45;;;;;;;6.43;100.00;101705.50;5053456;28;20029;-76
2023/05/08 06:16:31;;;;;;;10.05;6.95;;;;;;;6.48;100.00;101705.00;5051991;28;20470;-78
2023/05/08 06:18:58;;;;;;;10.93;7.40;;;;;;;6.59;100.00;101701.97;5051734;28;20028;-78
2023/05/08 06:21:23;;;;;;;11.18;6.82;;;;;;;6.68;100.00;101705.09;5053246;28;20519;-75
2023/05/08 06:23:51;;;;;;;9.75;5.93;;;;;;;6.76;100.00;101717.13;5053370;28;20025;-77
2023/05/08 06:26:18;;;;;;;12.45;6.63;;;;;;;6.81;100.00;101706.06;5052106;28;20029;-76
2023/05/08 06:28:45;;;;;;;9.05;5.90;;;;;;;7.03;100.00;101712.97;5053474;28;20033;-76
2023/05/08 06:31:10;;;;;;;12.10;5.93;;;;;;;7.97;100.00;101700.06;5051865;28;20462;-76
2023/05/08 06:33:37;;;;;;;5.82;4.43;;;;;;;9.45;100.00;101706.09;5053174;28;20040;-76
2023/05/08 06:36:05;;;;;;;17.15;5.75;;;;;;;11.53;100.00;101717.72;5052486;28;20025;-76
2023/05/08 06:38:31;;;;;;;10.43;4.80;;;;;;;13.87;100.00;101716.59;5051018;28;20078;-76
2023/05/08 06:40:56;;;;;;;7.05;4.10;;;;;;;15.77;75.24;101736.22;5050537;28;20032;-75
2023/05/08 06:43:22;;;;;;;7.93;4.30;;;;;;;17.39;63.77;101734.66;5033979;28;20106;-77
2023/05/08 06:45:51;;;;;;;5.70;3.75;;;;;;;19.02;51.00;101736.53;5052116;28;20114;-76
2023/05/08 06:48:17;;;;;;;4.93;3.60;;;;;;;20.00;44.07;101744.66;5049219;28;20045;-75
2023/05/08 06:50:42;;;;;;;9.90;3.85;;;;;;;20.99;39.82;101745.19;5051322;28;20036;-76
2023/05/08 06:53:09;;;;;;;4.35;3.30;;;;;;;21.92;39.41;101736.66;5053019;28;20043;-78
2023/05/08 06:55:34;;;;;;;6.57;3.65;;;;;;;23.19;37.03;101739.84;5053125;28;20044;-75
2023/05/08 06:58:00;;;;;;;4.53;2.88;;;;;;;24.23;34.14;101735.31;5052914;28;20037;-75
2023/05/08 07:00:26;;;;;;;3.90;3.00;;;;;;;23.48;32.00;101733.13;5052637;28;20045;-75
2023/05/08 07:02:51;;;;;;;4.55;3.78;;;;;;;23.76;34.63;101729.84;5051403;28;20041;-75
2023/05/08 07:05:19;;;;;;;6.75;3.33;;;;;;;24.81;32.13;101738.28;5052639;28;20108;-76
2023/05/08 07:07:45;;;;;;;4.22;3.53;;;;;;;23.93;31.16;101730.41;5053092;28;20037;-77
2023/05/08 07:10:11;;;;;;;6.68;3.92;;;;;;;23.95;31.48;101732.78;5053060;28;20081;-75
2023/05/08 07:12:36;;;;;;;4.22;3.78;;;;;;;24.74;31.75;101736.03;5050905;28;20370;-76
2023/05/08 07:15:03;;;;;;;4.32;3.58;;;;;;;25.74;30.68;101726.06;5051079;28;20060;-76
2023/05/08 07:17:29;;;;;;;7.22;3.42;;;;;;;26.30;28.21;101734.38;5051045;28;20029;-75
2023/05/08 07:19:55;;;;;;;4.50;3.17;;;;;;;25.89;29.51;101725.47;5051021;28;20079;-76
2023/05/08 07:22:22;;;;;;;3.47;3.10;;;;;;;26.18;29.39;101733.06;5051074;28;20115;-77
2023/05/08 07:24:49;;;;;;;3.28;2.80;;;;;;;26.73;27.67;101722.09;5052688;28;20032;-75
2023/05/08 07:27:17;;;;;;;6.90;3.50;;;;;;;27.26;27.45;101709.19;5052388;28;20485;-77
2023/05/08 07:29:42;;;;;;;5.40;3.05;;;;;;;27.12;25.80;101718.09;5034921;28;20013;-77
2023/05/08 07:32:08;;;;;;;6.82;3.58;;;;;;;26.73;26.51;101706.63;5052688;28;20028;-77
2023/05/08 07:34:36;;;;;;;3.90;2.85;;;;;;;26.84;26.69;101715.16;5053206;28;20123;-78
2023/05/08 07:37:02;;;;;;;5.22;2.65;;;;;;;25.85;25.98;101725.03;5052754;28;20079;-80
2023/05/08 07:39:27;;;;;;;5.68;3.10;;;;;;;24.80;27.53;101719.94;5056774;28;20025;-78
2023/05/08 07:41:53;;;;;;;3.45;3.13;;;;;;;24.63;27.92;101723.19;5056279;28;20450;-76
2023/05/08 07:44:19;;;;;;;3.30;2.88;;;;;;;25.47;27.89;101715.72;5056710;28;20025;-81
2023/05/08 07:46:44;;;;;;;7.75;3.47;;;;;;;25.69;26.98;101732.03;5056429;28;20025;-81
2023/05/08 07:49:10;;;;;;;5.47;2.47;;;;;;;24.51;26.45;101727.66;5056327;28;20521;-81
2023/05/08 07:51:38;;;;;;;4.75;3.00;;;;;;;23.21;27.58;101708.00;5056053;28;20521;-76
2023/05/08 07:54:05;;;;;;;6.85;2.50;;;;;;;23.97;27.49;101709.63;5055919;28;20041;-76
2023/05/08 07:56:31;;;;;;;3.47;2.83;;;;;;;23.50;27.25;101726.72;5037982;28;20029;-78
2023/05/08 07:58:57;;;;;;;4.97;3.58;;;;;;;22.74;28.29;101727.81;5055532;28;20031;-78
2023/05/08 08:01:22;;;;;;;6.65;2.80;;;;;;;22.27;29.79;101724.25;5055245;28;20049;-78
2023/05/08 08:03:47;;;;;;;5.40;2.83;;;;;;;22.52;29.51;101728.78;5055063;28;20060;-76
2023/05/08 08:06:17;;;;;;;2.55;2.30;;;;;;;23.30;29.19;101716.38;5036931;28;20072;-77
2023/05/08 08:08:42;;;;;;;3.28;2.88;;;;;;;23.44;28.58;101718.03;5055454;28;20029;-78
2023/05/08 08:11:09;;;;;;;3.75;3.20;;;;;;;24.03;28.06;101719.91;5055711;28;20122;-77
2023/05/08 08:13:34;;;;;;;3.22;2.63;;;;;;;24.01;27.45;101721.78;5055062;28;20174;-79
2023/05/08 08:16:00;;;;;;;5.13;2.80;;;;;;;24.17;28.62;101721.53;5055390;28;20056;-76
2023/05/08 08:18:27;;;;;;;5.22;3.40;;;;;;;24.11;27.43;101712.06;5054302;28;20035;-77
2023/05/08 08:20:53;;;;;;;6.35;2.95;;;;;;;23.95;28.69;101724.03;5054117;28;20044;-79
2023/05/08 08:23:27;;;;;;;2.90;2.60;;;;;;;23.91;28.55;101711.84;5055306;28;20128;-79
2023/05/08 08:25:54;;;;;;;3.97;2.60;;;;;;;24.33;27.86;101713.88;5055331;28;20021;-80
2023/05/08 08:28:21;;;;;;;3.42;3.10;;;;;;;24.68;27.95;101709.03;5055303;28;20016;-79
2023/05/08 08:30:48;;;;;;;3.90;2.83;;;;;;;24.76;27.67;101718.72;5053437;28;20024;-78
2023/05/08 08:33:14;;;;;;;4.18;3.47;;;;;;;24.35;27.21;101711.16;5053977;28;20033;-81
2023/05/08 08:35:40;;;;;;;4.75;3.30;;;;;;;24.43;28.99;101705.47;5037174;28;20033;-79
2023/05/08 08:38:06;;;;;;;5.97;3.03;;;;;;;24.36;28.41;101692.28;5055399;28;20083;-83
2023/05/08 08:40:41;;;;;;;7.28;3.58;;;;;;;24.57;28.74;101719.56;5054037;28;20072;-83
2023/05/08 08:43:07;;;;;;;5.90;3.45;;;;;;;24.51;28.20;101715.94;5053755;28;20041;-78
2023/05/08 08:45:32;;;;;;;3.38;3.08;;;;;;;24.25;27.35;101715.84;5053462;28;20060;-77
2023/05/08 08:48:01;;;;;;;3.90;3.50;;;;;;;23.66;28.22;101697.34;5054507;28;20114;-78
2023/05/08 08:50:31;;;;;;;5.03;3.85;;;;;;;23.61;29.61;101695.28;5052279;28;20021;-78
2023/05/08 08:53:06;;;;;;;4.15;3.45;;;;;;;23.67;29.35;101707.69;5053342;28;20025;-77
2023/05/08 08:55:33;;;;;;;4.75;3.03;;;;;;;23.56;29.56;101699.06;5055011;28;20029;-79
2023/05/08 08:58:33;;;;;;;6.15;3.47;;;;;;;23.28;28.96;101716.91;5036754;28;20029;-80
2023/05/08 09:01:08;;;;;;;5.00;3.45;;;;;;;21.91;29.96;101706.75;5052396;28;20461;-81
2023/05/08 09:03:34;;;;;;;5.57;3.78;;;;;;;21.78;31.10;101705.78;5054777;28;20455;-78
2023/05/08 09:06:00;;;;;;;6.22;3.75;;;;;;;22.03;31.21;101710.34;5054380;28;20104;-78
2023/05/08 09:08:46;;;;;;;24.98;6.15;;;;;;;22.34;31.13;101709.09;5036389;28;20060;-78
2023/05/08 09:11:13;;;;;;;6.43;3.70;;;;;;;22.30;30.62;101712.31;5052989;28;20111;-77
2023/05/08 09:13:40;;;;;;;5.03;3.25;;;;;;;22.15;31.15;101699.44;5052998;28;20041;-78
2023/05/08 09:16:06;;;;;;;5.68;3.60;;;;;;;21.99;31.45;101704.84;5054248;28;20044;-78
2023/05/08 09:18:32;;;;;;;4.68;3.40;;;;;;;21.86;30.61;101707.56;5052780;28;20039;-77
2023/05/08 09:21:06;;;;;;;5.25;4.03;;;;;;;20.82;31.74;101713.25;5053952;28;20033;-81
2023/05/08 09:23:31;;;;;;;4.55;3.30;;;;;;;20.14;33.77;101702.97;5054318;28;20033;-79
2023/05/08 09:25:57;;;;;;;6.57;3.88;;;;;;;19.91;34.58;101707.91;5052869;28;20040;-80
2023/05/08 09:28:24;;;;;;;6.50;4.60;;;;;;;19.02;36.07;101709.66;5055591;28;20111;-81
2023/05/08 09:30:56;;;;;;;4.95;4.38;;;;;;;18.52;37.12;101704.31;5054214;28;20028;-83
2023/05/08 09:33:26;;;;;;;6.20;4.15;;;;;;;17.91;38.32;101712.44;5054188;28;20382;-81
2023/05/08 09:35:52;;;;;;;8.45;4.88;;;;;;;17.46;39.28;101716.13;5036761;28;20113;-82
2023/05/08 09:38:38;;;;;;;6.68;4.28;;;;;;;17.20;40.00;101711.03;5054272;28;20032;-80
2023/05/08 09:41:15;;;;;;;10.07;4.55;;;;;;;16.57;42.13;101715.66;5036049;28;20478;-80
2023/05/08 09:43:42;;;;;;;5.65;4.22;;;;;;;16.22;44.08;101709.78;5049517;28;20122;-81
2023/05/08 09:46:23;;;;;;;7.07;4.13;;;;;;;16.60;45.44;101723.28;5052513;28;20032;-81
2023/05/08 09:48:49;;;;;;;5.65;4.30;;;;;;;16.68;43.40;101717.91;5053565;28;20624;-82
2023/05/08 09:51:17;;;;;;;18.98;5.30;;;;;;;16.70;43.64;101707.44;5035744;28;20037;-80
2023/05/08 09:53:43;;;;;;;9.18;4.28;;;;;;;16.67;45.29;101711.34;5052482;28;20036;-82
2023/05/08 09:56:10;;;;;;;4.63;3.58;;;;;;;16.86;46.11;101704.03;5052173;28;20037;-80
2023/05/08 09:58:42;;;;;;;4.32;3.83;;;;;;;17.07;43.96;101698.25;5053408;28;20435;-82
2023/05/08 10:01:27;;;;;;;4.35;3.85;;;;;;;16.93;43.04;101694.94;5052766;28;20107;-80
2023/05/08 10:03:53;;;;;;;5.43;4.30;;;;;;;16.79;42.79;101697.88;5052135;28;20037;-80
2023/05/08 10:06:20;;;;;;;5.05;4.25;;;;;;;16.45;43.69;101691.53;5052083;28;20109;-82
2023/05/08 10:09:12;;;;;;;4.68;4.22;;;;;;;16.25;45.17;101700.16;5053432;28;20032;-80
2023/05/08 10:11:54;;;;;;;7.88;4.20;;;;;;;16.07;46.67;101709.00;5052590;28;20061;-81
2023/05/08 10:14:21;;;;;;;6.15;4.70;;;;;;;15.91;46.92;101703.75;5053709;28;20129;-79
2023/05/08 10:16:49;;;;;;;5.03;3.95;;;;;;;15.83;48.47;101694.69;5053409;28;20029;-78
2023/05/08 10:19:16;;;;;;;6.45;4.68;;;;;;;15.79;47.99;101708.50;5035753;28;20047;-76
2023/05/08 10:21:48;;;;;;;6.10;4.22;;;;;;;15.92;49.23;101700.34;5019306;28;20482;-78
2023/05/08 10:24:33;;;;;;;6.22;4.38;;;;;;;16.00;46.80;101700.75;5053500;28;20082;-78
2023/05/08 10:27:23;;;;;;;7.72;4.15;;;;;;;15.81;46.81;101696.47;5051253;28;20041;-79
2023/05/08 10:29:55;;;;;;;10.65;4.38;;;;;;;15.60;48.10;101681.16;5052076;28;20029;-79
2023/05/08 10:32:21;;;;;;;8.50;4.07;;;;;;;15.60;48.92;101690.59;5035815;28;20099;-81
2023/05/08 10:34:58;;;;;;;7.15;4.07;;;;;;;15.73;47.48;101677.97;5053184;28;20122;-78
2023/05/08 10:37:25;;;;;;;5.25;3.88;;;;;;;15.69;47.00;101661.69;5052133;28;20036;-76
2023/05/08 10:39:53;;;;;;;5.38;4.32;;;;;;;15.48;47.06;101671.44;5053337;28;20363;-78
2023/05/08 10:42:19;;;;;;;7.30;4.43;;;;;;;15.09;48.79;101655.47;5053058;28;20036;-77
2023/05/08 10:44:44;;;;;;;7.38;4.35;;;;;;;15.02;49.02;101667.38;5053012;28;20390;-77
2023/05/08 10:47:34;;;;;;;4.63;3.78;;;;;;;15.23;50.32;101660.47;5053035;28;20043;-77
2023/05/08 10:50:33;;;;;;;6.45;4.07;;;;;;;14.98;47.49;101660.97;5053189;28;20568;-77
2023/05/08 10:53:04;;;;;;;7.07;4.43;;;;;;;14.88;50.29;101653.69;5022558;28;20557;-78
2023/05/08 10:55:32;;;;;;;6.50;3.90;;;;;;;14.82;52.78;101659.34;5052893;28;20071;-82
2023/05/08 10:58:09;;;;;;;5.40;3.90;;;;;;;14.45;53.65;101649.31;5051495;28;20032;-83
2023/05/08 11:00:59;;;;;;;7.15;4.32;;;;;;;14.48;54.63;101649.13;5052602;28;20433;-81
2023/05/08 11:03:31;;;;;;;6.05;4.50;;;;;;;14.71;55.86;101642.63;5051599;28;20033;-83
2023/05/08 11:05:58;;;;;;;5.10;4.28;;;;;;;14.84;55.41;101654.69;5052825;28;20048;-81
2023/05/08 11:08:29;;;;;;;7.40;5.07;;;;;;;14.58;53.46;101650.69;5052723;28;20113;-80
2023/05/08 11:11:00;;;;;;;12.02;5.32;;;;;;;14.45;55.80;101643.53;5052910;28;20106;-81
2023/05/08 11:13:48;;;;;;;7.55;4.65;;;;;;;14.52;54.88;101640.31;5054512;28;20029;-83
2023/05/08 11:16:15;;;;;;;5.07;3.90;;;;;;;14.41;54.61;101641.66;5056569;28;20052;-78
2023/05/08 11:19:16;;;;;;;4.60;3.55;;;;;;;14.27;52.55;101633.75;5058270;28;20037;-79
2023/05/08 11:22:11;;;;;;;5.43;3.83;;;;;;;13.98;55.13;101637.19;5056417;28;20028;-80
2023/05/08 11:24:59;;;;;;;8.07;4.78;;;;;;;13.83;54.52;101627.69;5057984;28;20057;-80
2023/05/08 11:27:50;;;;;;;9.25;3.80;;;;;;;13.81;57.07;101629.44;5057268;28;20115;-80
2023/05/08 11:30:32;;;;;;;9.32;4.70;;;;;;;13.77;57.98;101623.88;5057029;28;20086;-79
2023/05/08 11:33:04;;;;;;;7.53;4.72;;;;;;;13.69;56.05;101622.59;5055537;28;20033;-79
2023/05/08 11:36:11;;;;;;;10.00;4.38;;;;;;;13.72;57.94;101623.72;5056634;28;20029;-80
2023/05/08 11:38:37;;;;;;;4.88;3.22;;;;;;;13.96;56.55;101618.84;5055446;28;20044;-80